createdAt,value
2018-07-01T00:00:10.496Z,2.00
2018-07-01T00:02:39.505Z,2.67
2018-07-01T00:05:08.006Z,2.10
2018-07-01T00:07:36.622Z,2.10
2018-07-01T00:10:05.502Z,2.00
2018-07-01T00:12:33.669Z,1.80
2018-07-01T00:15:01.572Z,1.80
2018-07-01T00:17:29.432Z,1.73
2018-07-01T00:19:57.171Z,2.10
2018-07-01T00:22:25.071Z,2.33
2018-07-01T00:24:53.600Z,1.77
2018-07-01T00:27:21.334Z,1.77
2018-07-01T00:29:49.297Z,2.83
2018-07-01T00:32:17.245Z,2.00
2018-07-01T00:34:45.571Z,1.90
2018-07-01T00:37:14.127Z,2.70
2018-07-01T00:39:42.040Z,1.80
2018-07-01T00:42:09.805Z,1.53
2018-07-01T00:44:37.695Z,2.00
2018-07-01T00:47:05.720Z,1.93
2018-07-01T00:49:33.619Z,1.93
2018-07-01T00:52:01.532Z,2.10
2018-07-01T00:54:29.515Z,1.93
2018-07-01T00:56:57.742Z,2.30
2018-07-01T00:59:25.644Z,2.30
2018-07-01T01:01:53.498Z,2.37
2018-07-01T01:04:21.424Z,2.00
2018-07-01T01:06:49.340Z,1.90
2018-07-01T01:09:17.311Z,2.50
2018-07-01T01:11:45.061Z,2.10
2018-07-01T01:14:12.977Z,2.27
2018-07-01T01:16:40.906Z,2.07
2018-07-01T01:19:09.331Z,2.43
2018-07-01T01:21:37.289Z,2.07
2018-07-01T01:24:05.433Z,2.00
2018-07-01T01:26:33.840Z,2.50
2018-07-01T01:29:01.744Z,1.80
2018-07-01T01:31:30.086Z,2.00
2018-07-01T01:33:57.994Z,2.03
2018-07-01T01:36:27.639Z,1.90
2018-07-01T01:38:57.738Z,1.80
2018-07-01T01:41:30.921Z,2.40
2018-07-01T01:44:03.916Z,2.00
2018-07-01T01:46:36.441Z,2.20
2018-07-01T01:49:09.693Z,2.23
2018-07-01T01:51:43.242Z,2.10
2018-07-01T01:55:17.206Z,1.80
2018-07-01T01:57:51.315Z,2.10
2018-07-01T02:00:27.831Z,2.00
2018-07-01T02:03:00.669Z,2.57
2018-07-01T02:05:42.418Z,1.97
2018-07-01T02:08:15.351Z,2.23
2018-07-01T02:10:43.325Z,2.30
2018-07-01T02:13:11.147Z,1.50
2018-07-01T02:15:43.653Z,2.20
2018-07-01T02:18:11.812Z,2.20
2018-07-01T02:20:40.714Z,2.30
2018-07-01T02:23:27.797Z,2.80
2018-07-01T02:25:55.893Z,2.47
2018-07-01T02:28:23.937Z,2.37
2018-07-01T02:30:51.794Z,2.10
2018-07-01T02:33:19.507Z,2.93
2018-07-01T02:35:47.356Z,2.37
2018-07-01T02:38:15.387Z,2.10
2018-07-01T02:40:43.334Z,2.17
2018-07-01T02:43:11.272Z,2.37
2018-07-01T02:45:39.210Z,2.73
2018-07-01T02:48:07.092Z,2.50
2018-07-01T02:50:35.221Z,2.77
2018-07-01T02:53:03.094Z,3.47
2018-07-01T02:55:31.032Z,2.57
2018-07-01T02:57:59.440Z,2.80
2018-07-01T03:00:27.325Z,2.90
2018-07-01T03:02:55.259Z,2.90
2018-07-01T03:05:23.247Z,2.63
2018-07-01T03:07:51.096Z,2.10
2018-07-01T03:10:18.943Z,3.10
2018-07-01T03:12:46.811Z,2.93
2018-07-01T03:15:14.700Z,2.17
2018-07-01T03:17:42.580Z,2.63
2018-07-01T03:20:10.556Z,2.47
2018-07-01T03:22:38.446Z,2.87
2018-07-01T03:25:06.378Z,2.80
2018-07-01T03:27:34.137Z,2.97
2018-07-01T03:30:02.007Z,2.90
2018-07-01T03:32:30.398Z,2.40
2018-07-01T03:34:58.737Z,3.00
2018-07-01T03:37:26.647Z,2.57
2018-07-01T03:39:54.493Z,2.73
2018-07-01T03:42:22.392Z,2.73
2018-07-01T03:44:50.453Z,3.53
2018-07-01T03:47:18.299Z,2.80
2018-07-01T03:49:46.258Z,3.20
2018-07-01T03:52:14.255Z,2.83
2018-07-01T03:54:42.143Z,2.80
2018-07-01T03:57:10.074Z,2.67
2018-07-01T03:59:37.946Z,2.80
2018-07-01T04:02:06.230Z,2.80
2018-07-01T04:04:34.108Z,2.60
2018-07-01T04:07:02.046Z,2.90
2018-07-01T04:09:33.293Z,3.37
2018-07-01T04:12:02.414Z,2.37
2018-07-01T04:14:31.292Z,3.10
2018-07-01T04:16:59.034Z,3.90
2018-07-01T04:19:38.756Z,3.03
2018-07-01T04:22:07.715Z,2.70
2018-07-01T04:24:35.977Z,2.80
2018-07-01T04:27:03.960Z,3.07
2018-07-01T04:29:32.208Z,3.30
2018-07-01T04:32:00.546Z,2.37
2018-07-01T04:34:28.445Z,2.93
2018-07-01T04:36:56.523Z,2.47
2018-07-01T04:39:24.885Z,2.00
2018-07-01T04:41:52.953Z,2.47
2018-07-01T04:44:20.808Z,2.70
2018-07-01T04:46:48.728Z,2.50
2018-07-01T04:49:16.446Z,2.47
2018-07-01T04:51:44.313Z,2.23
2018-07-01T04:54:12.200Z,2.70
2018-07-01T04:56:40.039Z,2.60
2018-07-01T04:59:07.902Z,3.00
2018-07-01T05:01:35.767Z,3.17
2018-07-01T05:04:03.674Z,3.30
2018-07-01T05:06:31.753Z,3.20
2018-07-01T05:08:59.494Z,3.20
2018-07-01T05:11:27.726Z,3.17
2018-07-01T05:13:55.591Z,2.80
2018-07-01T05:16:23.511Z,2.90
2018-07-01T05:18:51.406Z,3.13
2018-07-01T05:21:19.293Z,3.40
2018-07-01T05:23:47.158Z,3.87
2018-07-01T05:26:15.429Z,4.90
2018-07-01T05:28:43.354Z,3.70
2018-07-01T05:31:11.255Z,5.00
2018-07-01T05:33:39.008Z,4.50
2018-07-01T05:36:06.964Z,3.87
2018-07-01T05:38:34.890Z,3.73
2018-07-01T05:41:02.784Z,3.07
2018-07-01T05:43:30.825Z,2.73
2018-07-01T05:45:58.713Z,3.07
2018-07-01T05:48:26.579Z,3.07
2018-07-01T05:50:54.426Z,2.70
2018-07-01T05:53:22.355Z,3.13
2018-07-01T05:55:50.535Z,2.50
2018-07-01T05:58:18.382Z,2.53
2018-07-01T06:00:47.188Z,2.80
2018-07-01T06:03:15.164Z,2.50
2018-07-01T06:05:43.128Z,2.40
2018-07-01T06:08:11.046Z,3.27
2018-07-01T06:10:38.982Z,2.50
2018-07-01T06:13:06.917Z,1.90
2018-07-01T06:15:35.081Z,3.10
2018-07-01T06:18:02.998Z,2.40
2018-07-01T06:20:30.898Z,2.00
2018-07-01T06:22:58.806Z,2.17
2018-07-01T06:25:26.732Z,2.67
2018-07-01T06:27:54.728Z,3.13
2018-07-01T06:30:23.657Z,2.40
2018-07-01T06:32:51.716Z,2.30
2018-07-01T06:35:19.442Z,2.40
2018-07-01T06:37:47.324Z,1.93
2018-07-01T06:40:15.289Z,2.70
2018-07-01T06:42:43.343Z,2.50
2018-07-01T06:45:11.297Z,2.87
2018-07-01T06:47:39.352Z,2.53
2018-07-01T06:50:08.699Z,1.90
2018-07-01T06:52:37.510Z,2.23
2018-07-01T06:55:06.190Z,2.17
2018-07-01T06:57:33.950Z,2.13
2018-07-01T07:00:01.737Z,1.90
2018-07-01T07:02:29.517Z,2.17
2018-07-01T07:04:57.451Z,2.10
2018-07-01T07:07:25.730Z,2.00
2018-07-01T07:09:53.812Z,2.10
2018-07-01T07:12:21.551Z,2.00
2018-07-01T07:14:49.969Z,2.30
2018-07-01T07:17:18.006Z,1.97
2018-07-01T07:19:45.790Z,1.90
2018-07-01T07:22:13.728Z,1.70
2018-07-01T07:24:42.673Z,1.87
2018-07-01T07:27:11.280Z,2.60
2018-07-01T07:29:39.154Z,1.87
2018-07-01T07:32:07.141Z,3.30
2018-07-01T07:34:35.021Z,2.30
2018-07-01T07:37:02.779Z,1.87
2018-07-01T07:39:31.680Z,1.70
2018-07-01T07:41:59.557Z,1.80
2018-07-01T07:44:27.444Z,1.77
2018-07-01T07:46:55.336Z,2.13
2018-07-01T07:49:23.736Z,2.27
2018-07-01T07:51:51.512Z,1.70
2018-07-01T07:54:19.415Z,1.80
2018-07-01T07:56:47.320Z,2.00
2018-07-01T07:59:15.286Z,1.53
2018-07-01T08:01:43.163Z,1.50
2018-07-01T08:04:11.050Z,1.57
2018-07-01T08:06:39.648Z,1.50
2018-07-01T08:09:08.706Z,1.57
2018-07-01T08:11:37.016Z,1.17
2018-07-01T08:14:06.831Z,1.40
2018-07-01T08:16:35.100Z,1.10
2018-07-01T08:19:03.848Z,0.90
2018-07-01T08:21:31.749Z,1.50
2018-07-01T08:23:59.688Z,1.40
2018-07-01T08:26:27.630Z,1.30
2018-07-01T08:29:01.038Z,0.80
2018-07-01T08:31:28.751Z,0.97
2018-07-01T08:33:56.688Z,1.20
2018-07-01T08:36:25.096Z,1.20
2018-07-01T08:38:53.549Z,1.00
2018-07-01T08:41:21.419Z,1.00
2018-07-01T08:43:49.312Z,1.20
2018-07-01T08:46:17.825Z,1.00
2018-07-01T08:48:45.697Z,1.10
2018-07-01T08:51:13.417Z,1.10
2018-07-01T08:53:41.342Z,1.10
2018-07-01T08:56:09.235Z,1.10
2018-07-01T08:58:37.136Z,1.30
2018-07-01T09:01:05.535Z,1.20
2018-07-01T09:03:33.290Z,1.30
2018-07-01T09:06:01.466Z,1.10
2018-07-01T09:08:30.057Z,1.20
2018-07-01T09:10:59.560Z,1.40
2018-07-01T09:13:28.264Z,1.40
2018-07-01T09:15:56.034Z,1.20
2018-07-01T09:18:24.071Z,0.90
2018-07-01T09:20:52.054Z,1.00
2018-07-01T09:23:19.942Z,1.60
2018-07-01T09:25:47.817Z,1.20
2018-07-01T09:28:15.766Z,1.30
2018-07-01T09:30:43.778Z,1.33
2018-07-01T09:33:12.243Z,1.33
2018-07-01T09:35:40.131Z,1.43
2018-07-01T09:38:08.029Z,1.53
2018-07-01T09:40:36.038Z,0.90
2018-07-01T09:43:04.118Z,1.30
2018-07-01T09:45:32.036Z,1.50
2018-07-01T09:47:59.908Z,1.00
2018-07-01T09:50:28.578Z,1.33
2018-07-01T09:52:56.382Z,1.20
2018-07-01T09:55:24.446Z,0.90
2018-07-01T09:57:52.351Z,1.47
2018-07-01T10:00:20.265Z,1.30
2018-07-01T10:02:48.142Z,1.40
2018-07-01T10:05:16.052Z,1.23
2018-07-01T10:07:43.935Z,1.23
2018-07-01T10:10:11.810Z,1.40
2018-07-01T10:12:40.047Z,1.30
2018-07-01T10:15:07.975Z,1.50
2018-07-01T10:17:35.851Z,1.27
2018-07-01T10:20:03.807Z,1.00
2018-07-01T10:22:31.698Z,1.07
2018-07-01T10:24:59.639Z,1.27
2018-07-01T10:27:27.403Z,1.10
2018-07-01T10:29:55.180Z,1.30
2018-07-01T10:32:23.002Z,1.10
2018-07-01T10:34:50.910Z,1.17
2018-07-01T10:37:18.669Z,1.03
2018-07-01T10:39:46.426Z,1.10
2018-07-01T10:42:14.293Z,1.20
2018-07-01T10:44:42.157Z,1.10
2018-07-01T10:47:10.069Z,1.00
2018-07-01T10:49:37.968Z,1.27
2018-07-01T10:52:08.012Z,1.20
2018-07-01T10:54:35.952Z,1.37
2018-07-01T10:57:05.077Z,1.00
2018-07-01T10:59:32.865Z,1.30
2018-07-01T11:02:00.604Z,1.00
2018-07-01T11:04:28.517Z,1.30
2018-07-01T11:06:56.467Z,1.20
2018-07-01T11:09:24.230Z,1.10
2018-07-01T11:11:52.345Z,1.27
2018-07-01T11:14:20.363Z,0.97
2018-07-01T11:16:48.868Z,1.53
2018-07-01T11:19:16.800Z,1.10
2018-07-01T11:21:45.457Z,1.30
2018-07-01T11:24:13.910Z,1.40
2018-07-01T11:26:41.805Z,1.30
2018-07-01T11:29:09.692Z,1.20
2018-07-01T11:31:38.107Z,1.47
2018-07-01T11:34:06.109Z,1.30
2018-07-01T11:36:34.027Z,1.30
2018-07-01T11:39:01.983Z,1.20
2018-07-01T11:41:29.920Z,1.13
2018-07-01T11:43:58.543Z,1.40
2018-07-01T11:46:26.491Z,1.20
2018-07-01T11:48:54.347Z,1.20
2018-07-01T11:51:22.259Z,1.20
2018-07-01T11:53:50.130Z,1.57
2018-07-01T11:56:18.150Z,1.23
2018-07-01T11:58:46.037Z,1.50
2018-07-01T12:01:14.246Z,1.40
2018-07-01T12:03:41.990Z,1.27
2018-07-01T12:06:09.878Z,1.30
2018-07-01T12:08:39.127Z,1.33
2018-07-01T12:11:07.361Z,1.03
2018-07-01T12:13:35.327Z,1.17
2018-07-01T12:16:03.958Z,1.20
2018-07-01T12:18:31.859Z,1.20
2018-07-01T12:21:00.160Z,1.47
2018-07-01T12:23:27.985Z,1.27
2018-07-01T12:25:55.894Z,1.20
2018-07-01T12:28:23.834Z,1.47
2018-07-01T12:30:51.683Z,1.27
2018-07-01T12:33:19.784Z,1.50
2018-07-01T12:35:47.541Z,1.20
2018-07-01T12:38:16.677Z,1.60
2018-07-01T12:40:44.500Z,1.37
2018-07-01T12:43:12.612Z,1.20
2018-07-01T12:45:40.606Z,1.20
2018-07-01T12:48:09.673Z,1.30
2018-07-01T12:50:37.573Z,1.10
2018-07-01T12:53:05.527Z,1.40
2018-07-01T12:55:33.431Z,1.10
2018-07-01T13:41:43.040Z,1.30
2018-07-01T13:44:10.947Z,1.67
2018-07-01T13:46:38.714Z,0.97
2018-07-01T13:49:07.030Z,1.40
2018-07-01T13:51:34.961Z,1.20
2018-07-01T13:54:02.833Z,1.17
2018-07-01T13:56:30.782Z,1.20
2018-07-01T13:58:58.660Z,1.60
2018-07-01T14:01:26.755Z,1.20
2018-07-01T14:03:55.019Z,1.10
2018-07-01T14:06:22.867Z,1.23
2018-07-01T14:08:50.934Z,1.10
2018-07-01T14:11:18.840Z,1.10
2018-07-01T14:13:46.724Z,1.00
2018-07-01T14:16:15.368Z,1.03
2018-07-01T14:18:43.452Z,0.90
2018-07-01T14:21:11.864Z,1.33
2018-07-01T14:23:39.818Z,1.33
2018-07-01T14:26:08.222Z,1.10
2018-07-01T14:28:36.943Z,1.30
2018-07-01T14:31:11.786Z,1.03
2018-07-01T14:33:40.191Z,0.90
2018-07-01T14:36:08.893Z,0.90
2018-07-01T14:38:36.795Z,1.50
2018-07-01T14:41:05.392Z,1.93
2018-07-01T14:43:33.306Z,1.00
2018-07-01T14:46:01.166Z,1.10
2018-07-01T14:48:29.028Z,1.20
2018-07-01T14:50:57.333Z,1.00
2018-07-01T14:53:25.286Z,1.00
2018-07-01T14:55:53.216Z,1.07
2018-07-01T14:58:21.174Z,1.40
2018-07-01T15:00:48.926Z,1.10
2018-07-01T15:03:16.845Z,1.07
2018-07-01T15:05:48.607Z,1.27
2018-07-01T15:08:16.544Z,1.00
2018-07-01T15:10:44.484Z,0.80
2018-07-01T15:13:14.307Z,0.90
2018-07-01T15:15:42.412Z,1.30
2018-07-01T15:18:10.310Z,1.20
2018-07-01T15:20:38.383Z,1.00
2018-07-01T15:23:06.137Z,1.20
2018-07-01T15:25:33.854Z,1.10
2018-07-01T15:28:01.714Z,1.10
2018-07-01T15:30:30.439Z,1.10
2018-07-01T15:32:58.300Z,1.00
2018-07-01T15:35:26.079Z,1.27
2018-07-01T15:37:54.046Z,1.10
2018-07-01T15:40:22.825Z,1.20
2018-07-01T15:42:50.784Z,1.10
2018-07-01T15:45:18.687Z,1.23
2018-07-01T15:47:47.062Z,1.50
2018-07-01T15:50:15.728Z,0.93
2018-07-01T15:52:43.602Z,1.00
2018-07-01T15:55:11.502Z,1.20
2018-07-01T15:57:39.393Z,0.93
2018-07-01T16:00:07.736Z,0.87
2018-07-01T16:02:35.727Z,0.90
2018-07-01T16:05:03.741Z,1.20
2018-07-01T16:07:31.503Z,1.07
2018-07-01T16:09:59.347Z,1.10
2018-07-01T16:12:27.256Z,1.00
2018-07-01T16:14:56.262Z,2.60
2018-07-01T16:17:24.170Z,1.47
2018-07-01T16:19:52.062Z,1.60
2018-07-01T16:22:20.479Z,1.00
2018-07-01T16:24:53.878Z,0.90
2018-07-01T16:27:29.763Z,0.90
2018-07-01T16:29:57.993Z,1.00
2018-07-01T16:32:25.738Z,1.10
2018-07-01T16:34:53.495Z,1.20
2018-07-01T16:37:22.016Z,1.53
2018-07-01T16:39:49.904Z,1.07
2018-07-01T16:42:17.756Z,2.20
2018-07-01T16:44:46.227Z,0.70
2018-07-01T16:47:14.177Z,1.20
2018-07-01T16:49:42.246Z,2.07
2018-07-01T16:52:10.190Z,1.20
2018-07-01T16:54:38.077Z,1.17
2018-07-01T16:57:06.008Z,1.00
2018-07-01T16:59:33.923Z,0.90
2018-07-01T17:02:01.702Z,1.10
2018-07-01T17:04:29.956Z,1.00
2018-07-01T17:06:58.456Z,1.40
2018-07-01T17:09:26.344Z,1.00
2018-07-01T17:11:54.218Z,0.90
2018-07-01T17:14:22.920Z,0.93
2018-07-01T17:16:50.839Z,1.20
2018-07-01T17:19:18.917Z,1.23
2018-07-01T17:21:46.927Z,0.90
2018-07-01T17:24:14.866Z,0.90
2018-07-01T17:26:42.781Z,1.03
2018-07-01T17:29:10.693Z,1.00
2018-07-01T17:31:44.359Z,1.00
2018-07-01T17:34:12.837Z,1.17
2018-07-01T17:36:40.976Z,1.03
2018-07-01T17:39:09.515Z,0.97
2018-07-01T17:41:38.121Z,0.90
2018-07-01T17:44:06.051Z,1.30
2018-07-01T17:46:34.161Z,1.03
2018-07-01T17:49:02.072Z,4.70
2018-07-01T17:51:30.018Z,1.53
2018-07-01T17:53:58.393Z,1.07
2018-07-01T17:56:26.391Z,1.20
2018-07-01T17:58:55.016Z,1.00
2018-07-01T18:01:23.383Z,0.90
2018-07-01T18:03:51.697Z,1.20
2018-07-01T18:06:19.617Z,1.20
2018-07-01T18:08:48.168Z,1.23
2018-07-01T18:11:16.088Z,2.10
2018-07-01T18:13:44.023Z,1.10
2018-07-01T18:16:12.028Z,1.13
2018-07-01T18:18:39.814Z,1.27
2018-07-01T18:21:07.581Z,6.23
2018-07-01T18:24:02.955Z,1.83
2018-07-01T18:26:03.408Z,1.53
2018-07-01T18:28:41.523Z,0.90
2018-07-01T18:30:59.292Z,1.27
2018-07-01T18:33:27.206Z,0.97
2018-07-01T18:35:55.171Z,0.90
2018-07-01T18:38:23.482Z,1.00
2018-07-01T18:40:51.868Z,0.90
2018-07-01T18:43:19.323Z,1.00
2018-07-01T18:45:48.025Z,1.10
2018-07-01T18:48:16.476Z,1.10
2018-07-01T18:50:44.346Z,1.10
2018-07-01T18:53:12.312Z,0.93
2018-07-01T18:55:40.785Z,0.90
2018-07-01T18:58:08.616Z,1.20
2018-07-01T19:00:36.575Z,1.30
2018-07-01T19:03:04.548Z,1.57
2018-07-01T19:05:32.479Z,1.57
2018-07-01T19:08:00.421Z,1.30
2018-07-01T19:10:28.346Z,1.47
2018-07-01T19:12:56.874Z,1.63
2018-07-01T19:15:24.662Z,1.57
2018-07-01T19:17:53.954Z,1.77
2018-07-01T19:20:22.830Z,1.33
2018-07-01T19:22:51.831Z,5.40
2018-07-01T19:25:19.758Z,1.63
2018-07-01T19:27:48.308Z,1.43
2018-07-01T19:30:17.572Z,1.20
2018-07-01T19:32:46.627Z,1.03
2018-07-01T19:35:14.522Z,1.20
2018-07-01T19:37:42.985Z,1.27
2018-07-01T19:40:12.030Z,1.40
2018-07-01T19:42:40.743Z,1.43
2018-07-01T19:45:08.716Z,1.63
2018-07-01T19:47:36.646Z,1.43
2018-07-01T19:50:04.919Z,1.70
2018-07-01T19:52:32.837Z,2.60
2018-07-01T19:55:00.727Z,2.10
2018-07-01T19:57:28.921Z,4.60
2018-07-01T19:59:56.704Z,4.20
2018-07-01T20:02:24.969Z,3.50
2018-07-01T20:04:52.922Z,2.90
2018-07-01T20:07:20.918Z,2.20
2018-07-01T20:09:48.827Z,1.90
2018-07-01T20:12:17.430Z,1.47
2018-07-01T20:14:45.350Z,1.30
2018-07-01T20:17:14.805Z,3.60
2018-07-01T20:19:42.789Z,5.00
2018-07-01T20:22:11.066Z,1.77
2018-07-01T20:24:38.854Z,3.00
2018-07-01T20:27:06.748Z,1.50
2018-07-01T20:29:34.631Z,2.00
2018-07-01T20:32:03.324Z,2.63
2018-07-01T20:34:32.164Z,2.00
2018-07-01T20:37:00.128Z,1.50
2018-07-01T20:39:28.550Z,1.50
2018-07-01T20:41:56.541Z,1.90
2018-07-01T20:44:24.552Z,2.60
2018-07-01T20:46:52.418Z,1.70
2018-07-01T20:49:20.298Z,1.40
2018-07-01T20:51:48.195Z,1.80
2018-07-01T20:54:16.212Z,1.70
2018-07-01T20:56:43.939Z,1.20
2018-07-01T20:59:12.212Z,1.30
2018-07-01T21:01:40.100Z,1.43
2018-07-01T21:04:07.996Z,1.50
2018-07-01T21:06:35.734Z,1.33
2018-07-01T21:09:05.823Z,1.60
2018-07-01T21:11:34.713Z,1.57
2018-07-01T21:14:03.676Z,1.23
2018-07-01T21:16:31.550Z,1.80
2018-07-01T21:18:59.404Z,1.40
2018-07-01T21:21:27.281Z,1.50
2018-07-01T21:23:55.360Z,1.57
2018-07-01T21:26:23.313Z,1.30
2018-07-01T21:28:52.128Z,1.50
2018-07-01T21:31:20.235Z,1.77
2018-07-01T21:33:48.130Z,1.40
2018-07-01T21:36:16.051Z,1.67
2018-07-01T21:38:49.571Z,1.33
2018-07-01T21:41:17.493Z,1.40
2018-07-01T21:43:45.371Z,1.60
2018-07-01T21:46:13.378Z,1.27
2018-07-01T21:48:41.132Z,1.83
2018-07-01T21:51:08.977Z,1.60
2018-07-01T21:53:36.950Z,1.40
2018-07-01T21:56:06.584Z,1.40
2018-07-01T21:58:34.536Z,1.30
2018-07-01T22:01:03.777Z,1.67
2018-07-01T22:03:31.898Z,1.67
2018-07-01T22:06:03.392Z,1.33
2018-07-01T22:08:31.310Z,1.87
2018-07-01T22:11:10.549Z,1.57
2018-07-01T22:14:48.029Z,1.37
2018-07-01T22:17:16.000Z,1.60
2018-07-01T22:19:44.027Z,1.53
2018-07-01T22:22:12.082Z,1.60
2018-07-01T22:24:40.079Z,1.40
2018-07-01T22:27:08.046Z,1.40
2018-07-01T22:29:36.051Z,1.33
2018-07-01T22:32:04.054Z,1.20
2018-07-01T22:34:31.966Z,1.70
2018-07-01T22:36:59.873Z,1.40
2018-07-01T22:39:29.733Z,1.70
2018-07-01T22:41:58.714Z,1.53
2018-07-01T22:44:26.975Z,1.70
2018-07-01T22:46:54.963Z,1.50
2018-07-01T22:49:22.782Z,1.50
2018-07-01T22:51:50.685Z,1.83
2018-07-01T22:54:18.434Z,1.90
2018-07-01T22:56:46.441Z,1.40
2018-07-01T22:59:14.329Z,1.70
2018-07-01T23:01:53.957Z,2.10
2018-07-01T23:04:21.871Z,1.90
2018-07-01T23:06:49.971Z,1.30
2018-07-01T23:09:18.434Z,2.20
2018-07-01T23:11:46.851Z,1.63
2018-07-01T23:14:14.632Z,1.63
2018-07-01T23:16:43.527Z,1.90
2018-07-01T23:19:11.448Z,1.90
2018-07-01T23:21:39.406Z,1.90
2018-07-01T23:24:07.632Z,1.97
2018-07-01T23:26:35.512Z,1.80
2018-07-01T23:29:03.451Z,1.40
2018-07-01T23:31:31.197Z,1.60
2018-07-01T23:33:59.095Z,1.50
2018-07-01T23:36:26.826Z,1.57
2018-07-01T23:38:54.599Z,1.60
2018-07-01T23:41:23.137Z,1.80
2018-07-01T23:43:51.058Z,1.70
2018-07-01T23:46:19.030Z,1.63
2018-07-01T23:48:46.954Z,2.00
2018-07-01T23:51:14.850Z,1.73
2018-07-01T23:53:42.774Z,1.43
2018-07-01T23:56:11.373Z,1.70
2018-07-01T23:58:39.281Z,1.53
